Terminal Aerodrome Forecast
Issued by NWS

Home | Current Version | Previous Version | Text Only | Print | Product List | Glossary On
Versions: 1 2 3 4 5 6 7 8 9 10 11 12 13 14 15 16 17 18 19 20
535
FTAK31 PAJN 181728
TAFAJN
TAF
PAJN 181728Z 1818/1918 VRB03KT P6SM FEW001 BKN050
     FM182200 VRB05KT P6SM SCT060
     FM190600 08004KT P6SM FEW005=

USA.gov is the U.S. government's official web portal to all federal, state and local government web resources and services.